sensor_id;sensor_type;location;lat;lon;timestamp;temperature;humidity
17687;DHT22;8962;52.538;13.266;2023-07-29T00:00:58;17.80;99.90
17687;DHT22;8962;52.538;13.266;2023-07-29T00:03:26;17.70;99.90
17687;DHT22;8962;52.538;13.266;2023-07-29T00:05:55;17.70;99.90
17687;DHT22;8962;52.538;13.266;2023-07-29T00:08:23;17.70;99.90
17687;DHT22;8962;52.538;13.266;2023-07-29T00:10:49;17.60;99.90
17687;DHT22;8962;52.538;13.266;2023-07-29T00:13:16;17.60;99.90
17687;DHT22;8962;52.538;13.266;2023-07-29T00:15:45;17.60;99.90
17687;DHT22;8962;52.538;13.266;2023-07-29T00:18:12;17.60;99.90
17687;DHT22;8962;52.538;13.266;2023-07-29T00:20:39;17.60;99.90
17687;DHT22;8962;52.538;13.266;2023-07-29T00:23:07;17.60;99.90
17687;DHT22;8962;52.538;13.266;2023-07-29T00:25:34;17.60;99.90
17687;DHT22;8962;52.538;13.266;2023-07-29T00:28:01;17.60;99.90
17687;DHT22;8962;52.538;13.266;2023-07-29T00:30:29;17.60;99.90
17687;DHT22;8962;52.538;13.266;2023-07-29T00:32:57;17.60;99.90
17687;DHT22;8962;52.538;13.266;2023-07-29T00:35:25;17.60;99.90
17687;DHT22;8962;52.538;13.266;2023-07-29T00:37:52;17.60;99.90
17687;DHT22;8962;52.538;13.266;2023-07-29T00:40:21;17.60;99.90
17687;DHT22;8962;52.538;13.266;2023-07-29T00:42:50;17.60;99.90
17687;DHT22;8962;52.538;13.266;2023-07-29T00:45:18;17.50;99.90
17687;DHT22;8962;52.538;13.266;2023-07-29T00:47:46;17.60;99.90
17687;DHT22;8962;52.538;13.266;2023-07-29T00:50:15;17.50;99.90
17687;DHT22;8962;52.538;13.266;2023-07-29T00:52:42;17.50;99.90
17687;DHT22;8962;52.538;13.266;2023-07-29T00:55:09;17.50;99.90
17687;DHT22;8962;52.538;13.266;2023-07-29T00:57:37;17.50;99.90
17687;DHT22;8962;52.538;13.266;2023-07-29T01:00:06;17.50;99.90
17687;DHT22;8962;52.538;13.266;2023-07-29T01:02:35;17.40;99.90
17687;DHT22;8962;52.538;13.266;2023-07-29T01:05:03;17.40;99.90
17687;DHT22;8962;52.538;13.266;2023-07-29T01:07:36;17.40;99.90
17687;DHT22;8962;52.538;13.266;2023-07-29T01:10:18;17.40;99.90
17687;DHT22;8962;52.538;13.266;2023-07-29T01:12:51;17.40;99.90
17687;DHT22;8962;52.538;13.266;2023-07-29T01:15:24;17.40;99.90
17687;DHT22;8962;52.538;13.266;2023-07-29T01:17:55;17.40;99.90
17687;DHT22;8962;52.538;13.266;2023-07-29T01:20:24;17.30;99.90
17687;DHT22;8962;52.538;13.266;2023-07-29T01:22:54;17.30;99.90
17687;DHT22;8962;52.538;13.266;2023-07-29T01:25:22;17.20;99.90
17687;DHT22;8962;52.538;13.266;2023-07-29T01:27:51;17.20;99.90
17687;DHT22;8962;52.538;13.266;2023-07-29T01:30:19;17.20;99.90
17687;DHT22;8962;52.538;13.266;2023-07-29T01:32:52;17.20;99.90
17687;DHT22;8962;52.538;13.266;2023-07-29T01:35:23;17.20;99.90
17687;DHT22;8962;52.538;13.266;2023-07-29T01:37:54;17.10;99.90
17687;DHT22;8962;52.538;13.266;2023-07-29T01:40:27;17.10;99.90
17687;DHT22;8962;52.538;13.266;2023-07-29T01:42:56;17.10;99.90
17687;DHT22;8962;52.538;13.266;2023-07-29T01:45:24;17.00;99.90
17687;DHT22;8962;52.538;13.266;2023-07-29T01:47:52;17.00;99.90
17687;DHT22;8962;52.538;13.266;2023-07-29T01:50:21;17.00;99.90
17687;DHT22;8962;52.538;13.266;2023-07-29T01:52:48;17.00;99.90
17687;DHT22;8962;52.538;13.266;2023-07-29T01:55:15;17.00;99.90
17687;DHT22;8962;52.538;13.266;2023-07-29T01:57:44;17.00;99.90
17687;DHT22;8962;52.538;13.266;2023-07-29T02:00:12;17.00;99.90
17687;DHT22;8962;52.538;13.266;2023-07-29T02:02:44;16.90;99.90
17687;DHT22;8962;52.538;13.266;2023-07-29T02:05:12;16.90;99.90
17687;DHT22;8962;52.538;13.266;2023-07-29T02:07:39;16.90;99.90
17687;DHT22;8962;52.538;13.266;2023-07-29T02:10:08;16.90;99.90
17687;DHT22;8962;52.538;13.266;2023-07-29T02:12:35;16.90;99.90
17687;DHT22;8962;52.538;13.266;2023-07-29T02:15:05;16.90;99.90
17687;DHT22;8962;52.538;13.266;2023-07-29T02:17:32;16.90;99.90
17687;DHT22;8962;52.538;13.266;2023-07-29T02:19:59;17.00;99.90
17687;DHT22;8962;52.538;13.266;2023-07-29T02:22:27;17.00;99.90
17687;DHT22;8962;52.538;13.266;2023-07-29T02:24:55;17.00;99.90
17687;DHT22;8962;52.538;13.266;2023-07-29T02:27:22;17.00;99.90
17687;DHT22;8962;52.538;13.266;2023-07-29T02:29:51;16.90;99.90
17687;DHT22;8962;52.538;13.266;2023-07-29T02:32:19;16.90;99.90
17687;DHT22;8962;52.538;13.266;2023-07-29T02:34:47;16.90;99.90
17687;DHT22;8962;52.538;13.266;2023-07-29T02:37:15;16.90;99.90
17687;DHT22;8962;52.538;13.266;2023-07-29T02:39:43;16.90;99.90
17687;DHT22;8962;52.538;13.266;2023-07-29T02:42:13;16.90;99.90
17687;DHT22;8962;52.538;13.266;2023-07-29T02:44:43;16.80;99.90
17687;DHT22;8962;52.538;13.266;2023-07-29T02:47:11;16.80;99.90
17687;DHT22;8962;52.538;13.266;2023-07-29T02:49:40;16.80;99.90
17687;DHT22;8962;52.538;13.266;2023-07-29T02:52:07;16.80;99.90
17687;DHT22;8962;52.538;13.266;2023-07-29T02:54:35;16.70;99.90
17687;DHT22;8962;52.538;13.266;2023-07-29T02:57:03;16.70;99.90
17687;DHT22;8962;52.538;13.266;2023-07-29T02:59:30;16.70;99.90
17687;DHT22;8962;52.538;13.266;2023-07-29T03:01:58;16.60;99.90
17687;DHT22;8962;52.538;13.266;2023-07-29T03:04:28;16.70;99.90
17687;DHT22;8962;52.538;13.266;2023-07-29T03:06:56;16.70;99.90
17687;DHT22;8962;52.538;13.266;2023-07-29T03:09:26;16.60;99.90
17687;DHT22;8962;52.538;13.266;2023-07-29T03:11:56;16.60;99.90
17687;DHT22;8962;52.538;13.266;2023-07-29T03:14:23;16.60;99.90
17687;DHT22;8962;52.538;13.266;2023-07-29T03:16:50;16.60;99.90
17687;DHT22;8962;52.538;13.266;2023-07-29T03:19:18;16.60;99.90
17687;DHT22;8962;52.538;13.266;2023-07-29T03:21:46;16.70;99.90
17687;DHT22;8962;52.538;13.266;2023-07-29T03:24:14;16.80;99.90
17687;DHT22;8962;52.538;13.266;2023-07-29T03:26:43;16.70;99.90
17687;DHT22;8962;52.538;13.266;2023-07-29T03:29:10;16.70;99.90
17687;DHT22;8962;52.538;13.266;2023-07-29T03:31:39;16.70;99.90
17687;DHT22;8962;52.538;13.266;2023-07-29T03:34:06;16.70;99.90
17687;DHT22;8962;52.538;13.266;2023-07-29T03:36:34;16.70;99.90
17687;DHT22;8962;52.538;13.266;2023-07-29T03:39:01;16.70;99.90
17687;DHT22;8962;52.538;13.266;2023-07-29T03:41:30;16.70;99.90
17687;DHT22;8962;52.538;13.266;2023-07-29T03:43:58;16.70;99.90
17687;DHT22;8962;52.538;13.266;2023-07-29T03:46:25;16.70;99.90
17687;DHT22;8962;52.538;13.266;2023-07-29T03:48:52;16.70;99.90
17687;DHT22;8962;52.538;13.266;2023-07-29T03:51:21;16.70;99.90
17687;DHT22;8962;52.538;13.266;2023-07-29T03:53:50;16.70;99.90
17687;DHT22;8962;52.538;13.266;2023-07-29T03:56:17;16.70;99.90
17687;DHT22;8962;52.538;13.266;2023-07-29T03:58:46;16.70;99.90
17687;DHT22;8962;52.538;13.266;2023-07-29T04:01:14;16.70;99.90
17687;DHT22;8962;52.538;13.266;2023-07-29T04:03:41;16.70;99.90
17687;DHT22;8962;52.538;13.266;2023-07-29T04:06:08;16.70;99.90
17687;DHT22;8962;52.538;13.266;2023-07-29T04:08:36;16.80;99.90
17687;DHT22;8962;52.538;13.266;2023-07-29T04:11:03;16.80;99.90
17687;DHT22;8962;52.538;13.266;2023-07-29T04:13:31;16.80;99.90
17687;DHT22;8962;52.538;13.266;2023-07-29T04:15:59;16.90;99.90
17687;DHT22;8962;52.538;13.266;2023-07-29T04:18:28;16.90;99.90
17687;DHT22;8962;52.538;13.266;2023-07-29T04:20:55;17.00;99.90
17687;DHT22;8962;52.538;13.266;2023-07-29T04:23:22;17.00;99.90
17687;DHT22;8962;52.538;13.266;2023-07-29T04:25:50;17.10;99.90
17687;DHT22;8962;52.538;13.266;2023-07-29T04:28:17;17.20;99.90
17687;DHT22;8962;52.538;13.266;2023-07-29T04:30:44;17.20;99.90
17687;DHT22;8962;52.538;13.266;2023-07-29T04:33:14;17.30;99.90
17687;DHT22;8962;52.538;13.266;2023-07-29T04:35:41;17.40;99.90
17687;DHT22;8962;52.538;13.266;2023-07-29T04:38:08;17.40;99.90
17687;DHT22;8962;52.538;13.266;2023-07-29T04:40:35;17.40;99.90
17687;DHT22;8962;52.538;13.266;2023-07-29T04:43:02;17.50;99.90
17687;DHT22;8962;52.538;13.266;2023-07-29T04:45:30;17.50;99.90
17687;DHT22;8962;52.538;13.266;2023-07-29T04:47:57;17.50;99.90
17687;DHT22;8962;52.538;13.266;2023-07-29T04:50:27;17.50;99.90
17687;DHT22;8962;52.538;13.266;2023-07-29T04:52:54;17.60;99.90
17687;DHT22;8962;52.538;13.266;2023-07-29T04:55:21;17.60;99.90
17687;DHT22;8962;52.538;13.266;2023-07-29T04:57:48;17.70;99.90
17687;DHT22;8962;52.538;13.266;2023-07-29T05:00:16;17.80;99.90
17687;DHT22;8962;52.538;13.266;2023-07-29T05:02:43;17.90;99.90
17687;DHT22;8962;52.538;13.266;2023-07-29T05:05:10;17.90;99.90
17687;DHT22;8962;52.538;13.266;2023-07-29T05:07:39;18.00;99.90
17687;DHT22;8962;52.538;13.266;2023-07-29T05:10:07;18.00;99.90
17687;DHT22;8962;52.538;13.266;2023-07-29T05:12:34;18.10;99.90
17687;DHT22;8962;52.538;13.266;2023-07-29T05:15:02;18.10;99.90
17687;DHT22;8962;52.538;13.266;2023-07-29T05:17:31;18.20;99.90
17687;DHT22;8962;52.538;13.266;2023-07-29T05:19:58;18.30;99.90
17687;DHT22;8962;52.538;13.266;2023-07-29T05:22:25;18.40;99.90
17687;DHT22;8962;52.538;13.266;2023-07-29T05:24:54;18.50;99.90
17687;DHT22;8962;52.538;13.266;2023-07-29T05:27:21;18.60;99.90
17687;DHT22;8962;52.538;13.266;2023-07-29T05:29:49;18.70;99.90
17687;DHT22;8962;52.538;13.266;2023-07-29T05:32:17;18.70;99.90
17687;DHT22;8962;52.538;13.266;2023-07-29T05:34:44;18.80;99.90
17687;DHT22;8962;52.538;13.266;2023-07-29T05:37:12;18.90;99.90
17687;DHT22;8962;52.538;13.266;2023-07-29T05:39:39;18.80;99.90
17687;DHT22;8962;52.538;13.266;2023-07-29T05:42:09;18.70;99.90
17687;DHT22;8962;52.538;13.266;2023-07-29T05:44:37;18.70;99.90
17687;DHT22;8962;52.538;13.266;2023-07-29T05:47:04;18.70;99.90
17687;DHT22;8962;52.538;13.266;2023-07-29T05:49:32;18.70;99.90
17687;DHT22;8962;52.538;13.266;2023-07-29T05:51:59;18.70;99.90
17687;DHT22;8962;52.538;13.266;2023-07-29T05:54:27;18.70;99.90
17687;DHT22;8962;52.538;13.266;2023-07-29T05:56:57;18.80;99.90
17687;DHT22;8962;52.538;13.266;2023-07-29T05:59:27;19.00;99.90
17687;DHT22;8962;52.538;13.266;2023-07-29T06:01:56;19.10;99.90
17687;DHT22;8962;52.538;13.266;2023-07-29T06:04:24;19.20;99.90
17687;DHT22;8962;52.538;13.266;2023-07-29T06:06:51;19.30;99.90
17687;DHT22;8962;52.538;13.266;2023-07-29T06:09:20;19.40;99.90
17687;DHT22;8962;52.538;13.266;2023-07-29T06:11:47;19.50;99.90
17687;DHT22;8962;52.538;13.266;2023-07-29T06:14:15;19.60;99.90
17687;DHT22;8962;52.538;13.266;2023-07-29T06:16:43;19.60;99.90
17687;DHT22;8962;52.538;13.266;2023-07-29T06:19:11;19.60;99.90
17687;DHT22;8962;52.538;13.266;2023-07-29T06:21:42;19.70;99.90
17687;DHT22;8962;52.538;13.266;2023-07-29T06:24:10;19.80;99.90
17687;DHT22;8962;52.538;13.266;2023-07-29T06:26:38;19.90;99.90
17687;DHT22;8962;52.538;13.266;2023-07-29T06:29:08;20.10;99.90
17687;DHT22;8962;52.538;13.266;2023-07-29T06:31:35;20.20;99.90
17687;DHT22;8962;52.538;13.266;2023-07-29T06:34:04;20.20;99.90
17687;DHT22;8962;52.538;13.266;2023-07-29T06:36:31;20.30;99.90
17687;DHT22;8962;52.538;13.266;2023-07-29T06:38:58;20.40;99.90
17687;DHT22;8962;52.538;13.266;2023-07-29T06:41:28;20.50;99.90
17687;DHT22;8962;52.538;13.266;2023-07-29T06:43:59;20.70;99.90
17687;DHT22;8962;52.538;13.266;2023-07-29T06:46:26;20.90;99.90
17687;DHT22;8962;52.538;13.266;2023-07-29T06:48:54;21.10;99.90
17687;DHT22;8962;52.538;13.266;2023-07-29T06:51:23;21.30;99.90
17687;DHT22;8962;52.538;13.266;2023-07-29T06:53:50;21.50;99.90
17687;DHT22;8962;52.538;13.266;2023-07-29T06:56:18;21.70;99.90
17687;DHT22;8962;52.538;13.266;2023-07-29T06:58:45;22.00;99.90
17687;DHT22;8962;52.538;13.266;2023-07-29T07:01:12;22.20;99.90
17687;DHT22;8962;52.538;13.266;2023-07-29T07:03:39;22.40;99.90
17687;DHT22;8962;52.538;13.266;2023-07-29T07:06:07;22.40;99.00
17687;DHT22;8962;52.538;13.266;2023-07-29T07:08:36;22.40;98.50
17687;DHT22;8962;52.538;13.266;2023-07-29T07:11:03;22.50;98.60
17687;DHT22;8962;52.538;13.266;2023-07-29T07:13:30;22.60;96.90
17687;DHT22;8962;52.538;13.266;2023-07-29T07:15:58;22.60;96.80
17687;DHT22;8962;52.538;13.266;2023-07-29T07:18:25;22.60;98.00
17687;DHT22;8962;52.538;13.266;2023-07-29T07:20:52;22.60;98.10
17687;DHT22;8962;52.538;13.266;2023-07-29T07:23:20;22.60;96.90
17687;DHT22;8962;52.538;13.266;2023-07-29T07:25:48;22.70;97.00
17687;DHT22;8962;52.538;13.266;2023-07-29T07:28:16;22.70;95.20
17687;DHT22;8962;52.538;13.266;2023-07-29T07:30:43;22.80;96.90
17687;DHT22;8962;52.538;13.266;2023-07-29T07:33:11;22.80;95.70
17687;DHT22;8962;52.538;13.266;2023-07-29T07:35:39;22.80;94.20
17687;DHT22;8962;52.538;13.266;2023-07-29T07:38:08;23.00;92.20
17687;DHT22;8962;52.538;13.266;2023-07-29T07:40:35;23.00;89.50
17687;DHT22;8962;52.538;13.266;2023-07-29T07:43:05;23.20;86.20
17687;DHT22;8962;52.538;13.266;2023-07-29T07:45:32;23.30;80.60
17687;DHT22;8962;52.538;13.266;2023-07-29T07:47:59;23.30;74.80
17687;DHT22;8962;52.538;13.266;2023-07-29T07:50:29;23.50;68.60
17687;DHT22;8962;52.538;13.266;2023-07-29T07:52:58;23.60;68.20
17687;DHT22;8962;52.538;13.266;2023-07-29T07:55:26;23.60;66.90
17687;DHT22;8962;52.538;13.266;2023-07-29T07:57:55;23.60;64.10
17687;DHT22;8962;52.538;13.266;2023-07-29T08:00:23;23.60;63.00
17687;DHT22;8962;52.538;13.266;2023-07-29T08:02:51;23.80;62.50
17687;DHT22;8962;52.538;13.266;2023-07-29T08:05:18;24.20;53.10
17687;DHT22;8962;52.538;13.266;2023-07-29T08:07:45;24.90;32.70
17687;DHT22;8962;52.538;13.266;2023-07-29T08:10:12;25.20;13.10
17687;DHT22;8962;52.538;13.266;2023-07-29T08:12:40;25.30;1.00
17687;DHT22;8962;52.538;13.266;2023-07-29T08:15:07;25.30;1.00
17687;DHT22;8962;52.538;13.266;2023-07-29T08:17:36;25.00;1.00
17687;DHT22;8962;52.538;13.266;2023-07-29T08:20:04;24.80;1.00
17687;DHT22;8962;52.538;13.266;2023-07-29T08:22:35;25.00;1.00
17687;DHT22;8962;52.538;13.266;2023-07-29T08:25:02;24.90;1.00
17687;DHT22;8962;52.538;13.266;2023-07-29T08:27:33;25.00;1.00
17687;DHT22;8962;52.538;13.266;2023-07-29T08:30:01;25.00;1.00
17687;DHT22;8962;52.538;13.266;2023-07-29T08:32:28;25.00;1.00
17687;DHT22;8962;52.538;13.266;2023-07-29T08:34:57;24.90;1.00
17687;DHT22;8962;52.538;13.266;2023-07-29T08:37:24;24.90;1.00
17687;DHT22;8962;52.538;13.266;2023-07-29T08:39:53;25.00;1.00
17687;DHT22;8962;52.538;13.266;2023-07-29T08:42:21;25.00;1.00
17687;DHT22;8962;52.538;13.266;2023-07-29T08:44:51;25.20;1.00
17687;DHT22;8962;52.538;13.266;2023-07-29T08:47:21;24.90;1.00
17687;DHT22;8962;52.538;13.266;2023-07-29T08:49:51;24.80;1.00
17687;DHT22;8962;52.538;13.266;2023-07-29T08:52:21;24.90;1.00
17687;DHT22;8962;52.538;13.266;2023-07-29T08:54:49;25.00;1.00
17687;DHT22;8962;52.538;13.266;2023-07-29T08:57:16;25.00;1.00
17687;DHT22;8962;52.538;13.266;2023-07-29T08:59:45;25.20;1.00
17687;DHT22;8962;52.538;13.266;2023-07-29T09:02:12;25.30;1.00
17687;DHT22;8962;52.538;13.266;2023-07-29T09:04:39;25.40;1.00
17687;DHT22;8962;52.538;13.266;2023-07-29T09:07:07;25.30;1.00
17687;DHT22;8962;52.538;13.266;2023-07-29T09:09:36;25.30;1.00
17687;DHT22;8962;52.538;13.266;2023-07-29T09:12:04;25.30;1.00
17687;DHT22;8962;52.538;13.266;2023-07-29T09:14:32;25.40;1.00
17687;DHT22;8962;52.538;13.266;2023-07-29T09:17:00;25.50;1.00
17687;DHT22;8962;52.538;13.266;2023-07-29T09:19:27;25.50;1.00
17687;DHT22;8962;52.538;13.266;2023-07-29T09:21:57;25.90;1.00
17687;DHT22;8962;52.538;13.266;2023-07-29T09:24:24;26.30;1.00
17687;DHT22;8962;52.538;13.266;2023-07-29T09:26:56;26.50;99.90
17687;DHT22;8962;52.538;13.266;2023-07-29T09:29:28;26.70;99.90
17687;DHT22;8962;52.538;13.266;2023-07-29T09:32:20;26.80;99.90
17687;DHT22;8962;52.538;13.266;2023-07-29T09:34:48;26.70;99.90
17687;DHT22;8962;52.538;13.266;2023-07-29T09:37:21;26.70;99.90
17687;DHT22;8962;52.538;13.266;2023-07-29T09:39:48;26.60;99.90
17687;DHT22;8962;52.538;13.266;2023-07-29T09:42:28;26.80;54.50
17687;DHT22;8962;52.538;13.266;2023-07-29T09:44:55;26.70;99.90
17687;DHT22;8962;52.538;13.266;2023-07-29T09:47:25;26.60;99.90
17687;DHT22;8962;52.538;13.266;2023-07-29T09:49:53;26.50;99.90
17687;DHT22;8962;52.538;13.266;2023-07-29T09:52:22;26.40;99.90
17687;DHT22;8962;52.538;13.266;2023-07-29T09:54:50;26.40;99.90
17687;DHT22;8962;52.538;13.266;2023-07-29T09:57:20;26.60;99.90
17687;DHT22;8962;52.538;13.266;2023-07-29T09:59:58;26.80;99.90
17687;DHT22;8962;52.538;13.266;2023-07-29T10:02:27;27.10;28.80
17687;DHT22;8962;52.538;13.266;2023-07-29T10:04:56;27.40;1.00
17687;DHT22;8962;52.538;13.266;2023-07-29T10:07:24;27.20;1.00
17687;DHT22;8962;52.538;13.266;2023-07-29T10:09:52;27.40;99.90
17687;DHT22;8962;52.538;13.266;2023-07-29T10:12:22;27.00;1.00
17687;DHT22;8962;52.538;13.266;2023-07-29T10:14:52;26.80;36.60
17687;DHT22;8962;52.538;13.266;2023-07-29T10:17:21;26.70;99.90
17687;DHT22;8962;52.538;13.266;2023-07-29T10:19:49;26.50;99.90
17687;DHT22;8962;52.538;13.266;2023-07-29T10:22:20;26.00;1.00
17687;DHT22;8962;52.538;13.266;2023-07-29T10:24:48;25.50;1.00
17687;DHT22;8962;52.538;13.266;2023-07-29T10:27:22;25.40;1.00
17687;DHT22;8962;52.538;13.266;2023-07-29T10:29:53;25.10;1.00
17687;DHT22;8962;52.538;13.266;2023-07-29T10:32:23;24.90;1.00
17687;DHT22;8962;52.538;13.266;2023-07-29T10:34:52;24.90;1.00
17687;DHT22;8962;52.538;13.266;2023-07-29T10:37:20;24.60;1.00
17687;DHT22;8962;52.538;13.266;2023-07-29T10:39:53;24.40;1.00
17687;DHT22;8962;52.538;13.266;2023-07-29T10:42:20;24.20;1.00
17687;DHT22;8962;52.538;13.266;2023-07-29T10:44:51;24.10;1.00
17687;DHT22;8962;52.538;13.266;2023-07-29T10:47:24;24.00;1.00
17687;DHT22;8962;52.538;13.266;2023-07-29T10:49:53;23.90;1.00
17687;DHT22;8962;52.538;13.266;2023-07-29T10:52:50;23.90;1.00
17687;DHT22;8962;52.538;13.266;2023-07-29T10:55:29;23.90;4.70
17687;DHT22;8962;52.538;13.266;2023-07-29T10:58:11;23.80;3.60
17687;DHT22;8962;52.538;13.266;2023-07-29T11:00:42;23.60;18.20
17687;DHT22;8962;52.538;13.266;2023-07-29T11:03:10;23.10;47.80
17687;DHT22;8962;52.538;13.266;2023-07-29T11:05:47;22.60;62.70
17687;DHT22;8962;52.538;13.266;2023-07-29T11:08:22;22.20;69.70
17687;DHT22;8962;52.538;13.266;2023-07-29T11:11:02;21.80;99.90
17687;DHT22;8962;52.538;13.266;2023-07-29T11:13:31;21.20;99.90
17687;DHT22;8962;52.538;13.266;2023-07-29T11:16:00;20.00;99.90
17687;DHT22;8962;52.538;13.266;2023-07-29T11:18:28;19.40;99.90
17687;DHT22;8962;52.538;13.266;2023-07-29T11:20:57;19.10;99.90
17687;DHT22;8962;52.538;13.266;2023-07-29T11:23:29;19.00;99.90
17687;DHT22;8962;52.538;13.266;2023-07-29T11:25:57;19.10;99.90
17687;DHT22;8962;52.538;13.266;2023-07-29T11:28:25;19.10;99.90
17687;DHT22;8962;52.538;13.266;2023-07-29T11:30:52;19.20;99.90
17687;DHT22;8962;52.538;13.266;2023-07-29T11:33:24;19.40;99.90
17687;DHT22;8962;52.538;13.266;2023-07-29T11:35:52;19.60;99.90
17687;DHT22;8962;52.538;13.266;2023-07-29T11:38:21;19.80;99.90
17687;DHT22;8962;52.538;13.266;2023-07-29T11:40:56;20.00;99.90
17687;DHT22;8962;52.538;13.266;2023-07-29T11:43:23;20.20;99.90
17687;DHT22;8962;52.538;13.266;2023-07-29T11:45:52;20.20;99.90
17687;DHT22;8962;52.538;13.266;2023-07-29T11:48:30;20.20;99.90
17687;DHT22;8962;52.538;13.266;2023-07-29T11:50:58;20.20;99.90
17687;DHT22;8962;52.538;13.266;2023-07-29T11:53:28;20.30;99.90
17687;DHT22;8962;52.538;13.266;2023-07-29T11:55:56;20.50;99.90
17687;DHT22;8962;52.538;13.266;2023-07-29T11:58:24;20.50;99.90
17687;DHT22;8962;52.538;13.266;2023-07-29T12:00:51;20.50;99.90
17687;DHT22;8962;52.538;13.266;2023-07-29T12:03:19;20.50;99.90
17687;DHT22;8962;52.538;13.266;2023-07-29T12:05:50;20.60;99.90
17687;DHT22;8962;52.538;13.266;2023-07-29T12:08:17;20.60;99.90
17687;DHT22;8962;52.538;13.266;2023-07-29T12:10:45;20.80;99.90
17687;DHT22;8962;52.538;13.266;2023-07-29T12:13:13;20.90;99.90
17687;DHT22;8962;52.538;13.266;2023-07-29T12:15:41;20.90;99.90
17687;DHT22;8962;52.538;13.266;2023-07-29T12:18:09;21.00;99.90
17687;DHT22;8962;52.538;13.266;2023-07-29T12:20:36;21.00;99.90
17687;DHT22;8962;52.538;13.266;2023-07-29T12:23:05;21.10;99.90
17687;DHT22;8962;52.538;13.266;2023-07-29T12:25:33;21.10;99.90
17687;DHT22;8962;52.538;13.266;2023-07-29T12:28:06;21.20;99.90
17687;DHT22;8962;52.538;13.266;2023-07-29T12:30:33;21.50;99.90
17687;DHT22;8962;52.538;13.266;2023-07-29T12:33:01;21.80;99.90
17687;DHT22;8962;52.538;13.266;2023-07-29T12:35:36;22.00;99.90
17687;DHT22;8962;52.538;13.266;2023-07-29T12:38:06;22.40;99.90
17687;DHT22;8962;52.538;13.266;2023-07-29T12:40:38;22.80;99.90
17687;DHT22;8962;52.538;13.266;2023-07-29T12:43:07;23.00;99.90
17687;DHT22;8962;52.538;13.266;2023-07-29T12:45:37;23.20;99.90
17687;DHT22;8962;52.538;13.266;2023-07-29T12:48:06;23.60;99.90
17687;DHT22;8962;52.538;13.266;2023-07-29T12:50:33;24.10;99.90
17687;DHT22;8962;52.538;13.266;2023-07-29T12:53:01;24.70;99.90
17687;DHT22;8962;52.538;13.266;2023-07-29T12:55:29;25.80;89.10
17687;DHT22;8962;52.538;13.266;2023-07-29T12:57:56;26.40;72.50
17687;DHT22;8962;52.538;13.266;2023-07-29T13:00:25;26.70;43.50
17687;DHT22;8962;52.538;13.266;2023-07-29T13:02:52;26.90;46.00
17687;DHT22;8962;52.538;13.266;2023-07-29T13:05:20;27.10;36.50
17687;DHT22;8962;52.538;13.266;2023-07-29T13:07:47;27.10;36.90
17687;DHT22;8962;52.538;13.266;2023-07-29T13:10:15;26.90;46.40
17687;DHT22;8962;52.538;13.266;2023-07-29T13:12:43;26.50;55.50
17687;DHT22;8962;52.538;13.266;2023-07-29T13:15:10;26.40;60.80
17687;DHT22;8962;52.538;13.266;2023-07-29T13:17:37;26.40;33.50
17687;DHT22;8962;52.538;13.266;2023-07-29T13:20:06;26.90;14.20
17687;DHT22;8962;52.538;13.266;2023-07-29T13:22:35;26.70;37.20
17687;DHT22;8962;52.538;13.266;2023-07-29T13:25:03;27.10;29.10
17687;DHT22;8962;52.538;13.266;2023-07-29T13:27:31;28.10;1.00
17687;DHT22;8962;52.538;13.266;2023-07-29T13:30:00;28.40;1.00
17687;DHT22;8962;52.538;13.266;2023-07-29T13:32:27;27.90;1.00
17687;DHT22;8962;52.538;13.266;2023-07-29T13:34:54;27.50;1.00
17687;DHT22;8962;52.538;13.266;2023-07-29T13:37:23;28.10;1.00
17687;DHT22;8962;52.538;13.266;2023-07-29T13:39:50;28.10;1.00
17687;DHT22;8962;52.538;13.266;2023-07-29T13:42:17;29.40;99.90
17687;DHT22;8962;52.538;13.266;2023-07-29T13:44:44;30.70;99.90
17687;DHT22;8962;52.538;13.266;2023-07-29T13:47:13;30.50;99.90
17687;DHT22;8962;52.538;13.266;2023-07-29T13:49:40;29.30;99.90
17687;DHT22;8962;52.538;13.266;2023-07-29T13:52:07;28.40;99.90
17687;DHT22;8962;52.538;13.266;2023-07-29T13:54:36;27.70;99.90
17687;DHT22;8962;52.538;13.266;2023-07-29T13:57:05;27.70;99.90
17687;DHT22;8962;52.538;13.266;2023-07-29T13:59:32;29.50;1.00
17687;DHT22;8962;52.538;13.266;2023-07-29T14:02:00;30.00;1.00
17687;DHT22;8962;52.538;13.266;2023-07-29T14:04:29;29.90;99.90
17687;DHT22;8962;52.538;13.266;2023-07-29T14:06:56;29.30;99.90
17687;DHT22;8962;52.538;13.266;2023-07-29T14:09:23;28.50;1.00
17687;DHT22;8962;52.538;13.266;2023-07-29T14:11:51;28.00;99.90
17687;DHT22;8962;52.538;13.266;2023-07-29T14:14:19;27.40;14.90
17687;DHT22;8962;52.538;13.266;2023-07-29T14:16:46;27.00;99.90
17687;DHT22;8962;52.538;13.266;2023-07-29T14:19:15;28.00;1.00
17687;DHT22;8962;52.538;13.266;2023-07-29T14:21:44;28.30;1.00
17687;DHT22;8962;52.538;13.266;2023-07-29T14:24:11;28.60;1.00
17687;DHT22;8962;52.538;13.266;2023-07-29T14:26:38;30.10;1.00
17687;DHT22;8962;52.538;13.266;2023-07-29T14:29:06;31.10;99.90
17687;DHT22;8962;52.538;13.266;2023-07-29T14:31:33;32.00;1.00
17687;DHT22;8962;52.538;13.266;2023-07-29T14:34:00;31.90;1.00
17687;DHT22;8962;52.538;13.266;2023-07-29T14:36:28;31.00;1.00
17687;DHT22;8962;52.538;13.266;2023-07-29T14:38:56;29.60;1.00
17687;DHT22;8962;52.538;13.266;2023-07-29T14:41:23;28.20;1.00
17687;DHT22;8962;52.538;13.266;2023-07-29T14:43:50;27.60;1.00
17687;DHT22;8962;52.538;13.266;2023-07-29T14:46:17;27.00;1.00
17687;DHT22;8962;52.538;13.266;2023-07-29T14:48:45;26.20;1.00
17687;DHT22;8962;52.538;13.266;2023-07-29T14:51:12;25.60;1.00
17687;DHT22;8962;52.538;13.266;2023-07-29T14:53:41;25.20;1.00
17687;DHT22;8962;52.538;13.266;2023-07-29T14:56:10;25.80;1.00
17687;DHT22;8962;52.538;13.266;2023-07-29T14:58:39;27.50;99.90
17687;DHT22;8962;52.538;13.266;2023-07-29T15:01:06;27.80;99.90
17687;DHT22;8962;52.538;13.266;2023-07-29T15:03:34;28.30;1.00
17687;DHT22;8962;52.538;13.266;2023-07-29T15:06:01;28.60;1.00
17687;DHT22;8962;52.538;13.266;2023-07-29T15:08:28;28.10;75.50
17687;DHT22;8962;52.538;13.266;2023-07-29T15:10:56;27.40;99.90
17687;DHT22;8962;52.538;13.266;2023-07-29T15:13:24;26.70;1.00
17687;DHT22;8962;52.538;13.266;2023-07-29T15:15:52;25.90;1.00
17687;DHT22;8962;52.538;13.266;2023-07-29T15:18:19;25.50;1.00
17687;DHT22;8962;52.538;13.266;2023-07-29T15:20:46;25.00;1.00
17687;DHT22;8962;52.538;13.266;2023-07-29T15:23:13;24.50;1.00
17687;DHT22;8962;52.538;13.266;2023-07-29T15:25:41;23.90;1.00
17687;DHT22;8962;52.538;13.266;2023-07-29T15:28:09;22.40;1.00
17687;DHT22;8962;52.538;13.266;2023-07-29T15:30:39;21.20;1.00
17687;DHT22;8962;52.538;13.266;2023-07-29T15:33:07;19.90;47.80
17687;DHT22;8962;52.538;13.266;2023-07-29T15:35:37;19.10;97.20
17687;DHT22;8962;52.538;13.266;2023-07-29T15:38:05;18.50;99.90
17687;DHT22;8962;52.538;13.266;2023-07-29T15:40:32;18.30;99.90
17687;DHT22;8962;52.538;13.266;2023-07-29T15:42:59;18.10;99.90